Terminal Aerodrome Forecast
Issued by NWS

Home | Current Version | Previous Version | Graphics & Text | Print | Product List | Glossary On
Versions: 1 2 3 4 5 6 7 8 9 10 11 12 13 14 15 16 17 18 19
000
FTUS43 KABR 262325
TAFMBG
TAF
KMBG 262325Z 2700/2724 14006KT P6SM SCT200
     FM270500 15010KT P6SM FEW250
     FM271000 16014G21KT P6SM FEW250 WS020/18040KT=

USA.gov is the U.S. government's official web portal to all federal, state and local government web resources and services.